Time;durP1;ratioP1;P1;durP2;ratioP2;P2;SDS_P1;SDS_P2;PMS_P1;PMS_P2;Temp;Humidity;BMP_temperature;BMP_pressure;BME280_temperature;BME280_humidity;BME280_pressure;Samples;Min_cycle;Max_cycle;Signal;HPM_P1;HPM_P2
2022/12/06 00:00:32;;;;;;;61.55;3.22;;;;;;;-2.17;100.00;93078.72;2139755;27;20419;-74
2022/12/06 00:01:39;;;;;;;20.88;2.60;;;;;;;-2.22;100.00;93092.81;2137425;27;20083;-75
2022/12/06 00:02:41;;;;;;;8.05;2.05;;;;;;;-2.17;100.00;93081.31;2132095;27;20027;-74
2022/12/06 00:03:44;;;;;;;26.13;2.40;;;;;;;-2.18;100.00;93083.19;2132088;27;20445;-74
2022/12/06 00:04:45;;;;;;;8.93;2.50;;;;;;;-2.09;100.00;93089.03;2132113;27;20067;-74
2022/12/06 00:05:47;;;;;;;10.93;1.90;;;;;;;-2.06;100.00;93083.13;2132005;27;20476;-74
2022/12/06 00:06:53;;;;;;;3.25;1.80;;;;;;;-2.07;100.00;93078.97;2131440;27;20027;-74
2022/12/06 00:07:54;;;;;;;2.72;1.80;;;;;;;-1.98;100.00;93080.66;2131663;27;20406;-74
2022/12/06 00:08:56;;;;;;;17.85;2.38;;;;;;;-1.91;100.00;93081.59;2132177;27;20031;-73
2022/12/06 00:09:59;;;;;;;41.53;2.75;;;;;;;-1.88;100.00;93077.56;2122713;27;20023;-74
2022/12/06 00:11:08;;;;;;;8.43;2.40;;;;;;;-1.85;100.00;93080.22;2122786;27;20056;-73
2022/12/06 00:12:09;;;;;;;9.25;2.15;;;;;;;-1.87;100.00;93084.31;2122532;27;20033;-74
2022/12/06 00:13:10;;;;;;;2.70;2.33;;;;;;;-1.95;100.00;93075.50;2122449;27;20050;-73
2022/12/06 00:14:13;;;;;;;3.03;2.20;;;;;;;-1.96;100.00;93083.72;2122491;27;20023;-75
2022/12/06 00:15:14;;;;;;;53.97;2.83;;;;;;;-1.99;100.00;93079.91;2123078;27;20495;-74
2022/12/06 00:16:15;;;;;;;9.32;2.30;;;;;;;-2.00;100.00;93081.00;2131583;27;20038;-74
2022/12/06 00:17:16;;;;;;;3.88;2.40;;;;;;;-1.92;100.00;93072.22;2122105;27;20438;-75
2022/12/06 00:18:18;;;;;;;2.67;2.25;;;;;;;-1.93;100.00;93073.34;2123081;27;20023;-75
2022/12/06 00:19:21;;;;;;;2.47;2.28;;;;;;;-2.08;100.00;93072.22;2131179;27;20554;-74
2022/12/06 00:20:22;;;;;;;2.50;2.30;;;;;;;-2.10;100.00;93071.03;2131505;27;20035;-75
2022/12/06 00:21:29;;;;;;;2.50;2.33;;;;;;;-2.11;100.00;93072.91;2131745;27;20030;-75
2022/12/06 00:22:30;;;;;;;2.30;2.10;;;;;;;-2.12;100.00;93070.59;2113371;28;20036;-76
2022/12/06 00:23:34;;;;;;;2.10;1.92;;;;;;;-2.05;100.00;93060.31;2113991;27;20461;-75
2022/12/06 00:24:35;;;;;;;2.80;2.40;;;;;;;-2.01;100.00;93065.63;2131123;27;20027;-75
2022/12/06 00:25:36;;;;;;;2.60;2.40;;;;;;;-1.92;100.00;93056.50;2122030;27;20023;-76
2022/12/06 00:26:39;;;;;;;2.17;2.00;;;;;;;-1.91;100.00;93067.75;2113709;27;20142;-76
2022/12/06 00:27:40;;;;;;;2.25;2.05;;;;;;;-1.94;100.00;93060.56;2114042;27;20028;-76
2022/12/06 00:28:41;;;;;;;2.20;2.00;;;;;;;-1.94;100.00;93063.16;2122470;27;20054;-76
2022/12/06 00:29:42;;;;;;;2.30;2.08;;;;;;;-1.91;100.00;93059.88;2131593;27;20057;-76
2022/12/06 00:30:43;;;;;;;2.00;1.90;;;;;;;-2.01;100.00;93058.53;2136701;27;20027;-76
2022/12/06 00:31:44;;;;;;;2.42;2.22;;;;;;;-1.99;100.00;93058.19;2130119;27;20488;-76
2022/12/06 00:32:45;;;;;;;2.00;1.88;;;;;;;-1.89;100.00;93061.09;2131038;27;20356;-75
2022/12/06 00:33:47;;;;;;;2.03;1.92;;;;;;;-1.85;100.00;93055.91;2140322;27;20022;-76
2022/12/06 00:34:48;;;;;;;2.58;2.35;;;;;;;-1.71;100.00;93069.34;2139900;27;20105;-76
2022/12/06 00:36:06;;;;;;;2.50;2.30;;;;;;;-1.72;100.00;93067.81;2140182;27;20014;-75
2022/12/06 00:37:07;;;;;;;2.20;2.00;;;;;;;-1.77;100.00;93063.59;2138869;27;20460;-75
2022/12/06 00:38:08;;;;;;;2.38;2.17;;;;;;;-1.73;100.00;93066.28;2139599;27;20033;-75
2022/12/06 00:39:13;;;;;;;2.50;2.30;;;;;;;-1.76;100.00;93061.72;2140189;27;20029;-76
2022/12/06 00:40:14;;;;;;;2.53;2.33;;;;;;;-1.75;100.00;93065.88;2140159;27;20115;-76
2022/12/06 00:41:17;;;;;;;2.58;2.17;;;;;;;-1.77;100.00;93060.22;2140235;27;20030;-76
2022/12/06 00:42:18;;;;;;;2.50;2.30;;;;;;;-1.74;100.00;93058.78;2136480;27;20101;-76
2022/12/06 00:43:19;;;;;;;2.97;2.75;;;;;;;-1.74;100.00;93059.53;2122009;27;20031;-76
2022/12/06 00:44:20;;;;;;;2.78;2.58;;;;;;;-1.78;100.00;93058.69;2113457;28;20027;-75
2022/12/06 00:45:22;;;;;;;2.80;2.60;;;;;;;-1.75;100.00;93059.91;2122168;27;20030;-75
2022/12/06 00:46:29;;;;;;;3.35;2.47;;;;;;;-1.81;100.00;93057.50;2131363;27;20137;-75
2022/12/06 00:47:30;;;;;;;2.97;2.67;;;;;;;-1.89;100.00;93055.84;2131358;27;20102;-76
2022/12/06 00:48:32;;;;;;;2.50;2.30;;;;;;;-1.84;100.00;93052.97;2122156;27;20031;-76
2022/12/06 00:49:32;;;;;;;3.22;2.70;;;;;;;-1.88;100.00;93052.13;2121770;27;20015;-76
2022/12/06 00:50:33;;;;;;;2.95;2.75;;;;;;;-2.00;100.00;93051.44;2131231;27;20038;-76
2022/12/06 00:51:35;;;;;;;2.72;2.50;;;;;;;-1.94;100.00;93053.44;2131456;27;20015;-76
2022/12/06 00:52:36;;;;;;;2.40;2.20;;;;;;;-1.92;100.00;93051.28;2121988;27;20065;-76
2022/12/06 00:53:37;;;;;;;2.92;2.65;;;;;;;-1.91;100.00;93054.66;2122168;27;20103;-75
2022/12/06 00:54:38;;;;;;;4.57;2.70;;;;;;;-1.98;100.00;93055.22;2122297;27;20054;-75
2022/12/06 00:55:39;;;;;;;2.70;2.50;;;;;;;-1.95;100.00;93054.56;2113505;28;20106;-76
2022/12/06 00:56:40;;;;;;;2.63;2.42;;;;;;;-2.01;100.00;93055.91;2121258;27;20053;-75
2022/12/06 00:57:41;;;;;;;2.58;2.38;;;;;;;-2.04;100.00;93049.50;2136353;27;20037;-75
2022/12/06 00:58:43;;;;;;;2.78;2.58;;;;;;;-1.99;100.00;93055.56;2139799;27;20081;-75
2022/12/06 00:59:44;;;;;;;2.60;2.40;;;;;;;-1.93;100.00;93048.97;2139898;27;20108;-75
2022/12/06 01:00:45;;;;;;;2.80;2.53;;;;;;;-1.95;100.00;93053.81;2140003;27;20467;-75
2022/12/06 01:01:47;;;;;;;4.10;2.75;;;;;;;-2.03;100.00;93047.63;2139516;27;20028;-75
2022/12/06 01:02:48;;;;;;;3.60;2.70;;;;;;;-1.97;100.00;93048.16;2138774;27;20074;-75
2022/12/06 01:03:52;;;;;;;3.28;2.83;;;;;;;-2.04;100.00;93044.25;2130472;27;20038;-75
2022/12/06 01:04:53;;;;;;;3.03;2.80;;;;;;;-2.01;100.00;93044.69;2130932;27;20491;-76
2022/12/06 01:05:54;;;;;;;2.60;2.40;;;;;;;-2.06;100.00;93049.06;2140036;27;20022;-76
2022/12/06 01:06:55;;;;;;;3.28;2.70;;;;;;;-2.11;100.00;93051.16;2121385;27;20461;-75
2022/12/06 01:07:56;;;;;;;2.70;2.50;;;;;;;-2.12;100.00;93052.28;2121387;27;20466;-75
2022/12/06 01:09:00;;;;;;;4.00;3.30;;;;;;;-2.08;100.00;93048.63;2131175;27;20417;-75
2022/12/06 01:10:01;;;;;;;2.95;2.65;;;;;;;-2.11;100.00;93045.94;2131381;27;20106;-75
2022/12/06 01:11:03;;;;;;;3.40;3.08;;;;;;;-2.16;100.00;93044.31;2139459;27;20056;-75
2022/12/06 01:12:04;;;;;;;3.28;2.97;;;;;;;-2.16;100.00;93046.94;2139466;27;20018;-76
2022/12/06 01:13:06;;;;;;;3.47;3.10;;;;;;;-2.12;100.00;93045.16;2133097;27;20080;-76
2022/12/06 01:14:07;;;;;;;3.17;2.88;;;;;;;-2.15;100.00;93047.69;2131055;27;20183;-76
2022/12/06 01:15:10;;;;;;;3.17;2.88;;;;;;;-2.22;100.00;93043.06;2131420;27;20162;-75
2022/12/06 01:16:17;;;;;;;3.40;3.10;;;;;;;-2.14;100.00;93038.78;2131406;27;20071;-75
2022/12/06 01:17:19;;;;;;;3.67;2.80;;;;;;;-2.12;100.00;93050.41;2130990;27;20060;-75
2022/12/06 01:18:20;;;;;;;3.45;3.15;;;;;;;-2.09;100.00;93043.75;2136454;27;20474;-76
2022/12/06 01:19:21;;;;;;;3.50;3.20;;;;;;;-2.11;100.00;93046.72;2139472;27;20022;-76
2022/12/06 01:20:22;;;;;;;3.78;3.38;;;;;;;-2.10;100.00;93045.63;2139822;27;20050;-75
2022/12/06 01:21:25;;;;;;;3.38;3.08;;;;;;;-2.21;100.00;93041.97;2130592;27;20026;-76
2022/12/06 01:22:26;;;;;;;3.95;3.00;;;;;;;-2.18;100.00;93038.69;2130774;27;20065;-75
2022/12/06 01:23:27;;;;;;;3.13;2.85;;;;;;;-2.25;100.00;93033.25;2134080;27;20646;-76
2022/12/06 01:24:28;;;;;;;3.38;3.08;;;;;;;-2.25;100.00;93032.50;2121475;27;20074;-76
2022/12/06 01:25:31;;;;;;;3.33;2.72;;;;;;;-2.32;100.00;93039.09;2121956;27;20035;-76
2022/12/06 01:26:34;;;;;;;3.50;3.10;;;;;;;-2.34;100.00;93035.28;2131243;27;20037;-76
2022/12/06 01:27:35;;;;;;;3.05;2.75;;;;;;;-2.33;100.00;93036.78;2131064;27;20775;-76
2022/12/06 01:28:35;;;;;;;3.28;2.85;;;;;;;-2.40;100.00;93047.09;2126344;27;20026;-76
2022/12/06 01:29:36;;;;;;;2.90;2.70;;;;;;;-2.39;100.00;93043.38;2129764;27;20032;-75
2022/12/06 01:30:39;;;;;;;3.40;3.10;;;;;;;-2.43;100.00;93035.44;2139679;27;20030;-76
2022/12/06 01:31:40;;;;;;;3.40;3.10;;;;;;;-2.36;100.00;93043.47;2136103;27;20029;-76
2022/12/06 01:32:40;;;;;;;3.25;2.95;;;;;;;-2.39;100.00;93032.91;2131746;27;20034;-75
2022/12/06 01:33:42;;;;;;;3.03;2.78;;;;;;;-2.50;100.00;93043.13;2122299;27;20062;-76
2022/12/06 01:34:44;;;;;;;3.60;3.30;;;;;;;-2.50;100.00;93037.09;2121762;27;20030;-76
2022/12/06 01:35:45;;;;;;;3.30;3.00;;;;;;;-2.57;100.00;93035.06;2131341;27;20484;-76
2022/12/06 01:36:50;;;;;;;3.20;2.90;;;;;;;-2.55;100.00;93025.81;2131103;27;20019;-76
2022/12/06 01:37:52;;;;;;;3.10;2.90;;;;;;;-2.47;100.00;93033.81;2121821;27;20076;-76
2022/12/06 01:38:55;;;;;;;2.92;2.63;;;;;;;-2.55;100.00;93030.25;2125230;27;20061;-76
2022/12/06 01:39:56;;;;;;;2.90;2.70;;;;;;;-2.53;100.00;93031.47;2139594;27;20018;-75
2022/12/06 01:40:57;;;;;;;3.20;2.88;;;;;;;-2.44;100.00;93027.94;2129928;27;20026;-76
2022/12/06 01:41:58;;;;;;;3.05;2.85;;;;;;;-2.31;100.00;93034.63;2129824;27;20425;-75
2022/12/06 01:42:59;;;;;;;2.88;2.58;;;;;;;-2.34;100.00;93030.03;2130196;27;20575;-76
2022/12/06 01:44:00;;;;;;;3.63;3.00;;;;;;;-2.43;100.00;93027.59;2126717;27;20064;-76
2022/12/06 01:45:01;;;;;;;4.28;2.83;;;;;;;-2.50;100.00;93029.25;2130908;27;20545;-75
2022/12/06 01:46:44;;;;;;;3.28;2.97;;;;;;;-2.43;100.00;93027.59;2132214;27;20543;-75
2022/12/06 01:47:45;;;;;;;3.03;2.75;;;;;;;-2.34;100.00;93030.03;2126016;27;20023;-75
2022/12/06 01:48:52;;;;;;;3.10;2.80;;;;;;;-2.33;100.00;93023.69;2113004;28;20072;-75
2022/12/06 01:50:05;;;;;;;2.65;2.45;;;;;;;-2.50;100.00;93024.81;2122525;27;20418;-74
2022/12/06 01:51:09;;;;;;;2.95;2.50;;;;;;;-2.45;100.00;93027.16;2132260;27;20115;-75
2022/12/06 01:52:12;;;;;;;3.20;2.90;;;;;;;-2.37;100.00;93028.09;2130157;27;20463;-76
2022/12/06 01:53:14;;;;;;;2.90;2.58;;;;;;;-2.36;100.00;93033.00;2130841;27;20058;-76
2022/12/06 01:54:18;;;;;;;3.70;2.95;;;;;;;-2.37;100.00;93028.09;2136667;27;20440;-77
2022/12/06 01:55:21;;;;;;;3.90;3.08;;;;;;;-2.44;100.00;93028.69;2130578;27;20113;-75
2022/12/06 01:56:22;;;;;;;3.42;3.05;;;;;;;-2.56;100.00;93029.50;2130855;27;20359;-76
2022/12/06 01:57:23;;;;;;;2.85;2.65;;;;;;;-2.54;100.00;93022.09;2131064;27;20022;-77
2022/12/06 01:58:31;;;;;;;3.45;3.15;;;;;;;-2.54;100.00;93031.81;2131026;27;20757;-75
2022/12/06 01:59:32;;;;;;;2.80;2.60;;;;;;;-2.63;100.00;93024.09;2130233;27;20018;-76
2022/12/06 02:00:33;;;;;;;3.75;3.20;;;;;;;-2.63;100.00;93029.34;2134764;27;20037;-74
2022/12/06 02:01:36;;;;;;;3.25;2.83;;;;;;;-2.60;100.00;93020.03;2126915;27;20023;-75
2022/12/06 02:02:37;;;;;;;2.97;2.67;;;;;;;-2.69;100.00;93024.66;2122078;27;20027;-76
2022/12/06 02:03:39;;;;;;;5.03;2.47;;;;;;;-2.86;100.00;93023.09;2131002;27;20453;-76
2022/12/06 02:04:40;;;;;;;3.00;2.80;;;;;;;-2.79;100.00;93023.31;2132326;27;20030;-74
2022/12/06 02:05:42;;;;;;;5.25;2.70;;;;;;;-2.80;100.00;93024.41;2139350;27;20070;-74
2022/12/06 02:06:44;;;;;;;2.97;2.78;;;;;;;-2.87;100.00;93029.44;2129750;27;20037;-75
2022/12/06 02:07:45;;;;;;;3.55;3.25;;;;;;;-2.85;100.00;93024.66;2130199;27;20018;-76
2022/12/06 02:08:47;;;;;;;3.20;2.90;;;;;;;-2.83;100.00;93025.06;2139701;27;20029;-76
2022/12/06 02:09:50;;;;;;;3.33;3.03;;;;;;;-2.75;100.00;93026.78;2138939;27;20124;-75
2022/12/06 02:10:51;;;;;;;3.10;2.80;;;;;;;-2.85;100.00;93028.03;2140455;27;20112;-76
2022/12/06 02:11:52;;;;;;;3.95;2.78;;;;;;;-2.78;100.00;93028.19;2142660;27;20329;-75
2022/12/06 02:12:56;;;;;;;2.80;2.60;;;;;;;-2.74;100.00;93024.91;2132120;27;20095;-76
2022/12/06 02:13:58;;;;;;;3.20;2.90;;;;;;;-2.72;100.00;93023.50;2123560;27;20114;-77
2022/12/06 02:14:59;;;;;;;3.45;2.63;;;;;;;-2.65;100.00;93022.91;2121467;27;20050;-77
2022/12/06 02:17:11;;;;;;;;;;;;;;;-2.86;100.00;93029.09;2147923;27;20522;-77
2022/12/06 02:18:19;;;;;;;2.65;2.45;;;;;;;-2.86;100.00;93025.72;2147124;27;19979;-77
2022/12/06 02:19:23;;;;;;;3.20;2.88;;;;;;;-2.94;100.00;93027.41;2146997;27;20129;-77
2022/12/06 02:20:26;;;;;;;3.42;3.10;;;;;;;-2.94;100.00;93031.84;2143439;27;20479;-75
2022/12/06 02:21:45;;;;;;;3.50;3.10;;;;;;;-2.94;100.00;93026.63;2140896;27;20027;-76
2022/12/06 02:23:28;;;;;;;4.38;3.60;;;;;;;-2.92;100.00;93027.06;2147057;27;20030;-76
2022/12/06 02:25:04;;;;;;;8.07;3.55;;;;;;;-2.98;100.00;93023.16;2146894;27;20132;-76
2022/12/06 02:26:05;;;;;;;3.90;3.42;;;;;;;-2.91;100.00;93023.34;2102388;28;20020;-74
2022/12/06 02:27:52;;;;;;;4.40;3.80;;;;;;;-2.85;100.00;93020.16;2102586;28;20055;-76
2022/12/06 02:28:56;;;;;;;5.50;3.67;;;;;;;-2.88;100.00;93020.81;2132381;27;20141;-76
2022/12/06 02:30:28;;;;;;;6.32;3.80;;;;;;;-2.94;100.00;93021.38;2138184;27;20023;-75
2022/12/06 02:31:38;;;;;;;4.13;3.50;;;;;;;-2.89;100.00;93018.56;2138020;27;20457;-74
2022/12/06 02:32:58;;;;;;;5.90;4.00;;;;;;;-3.00;100.00;93018.25;2137988;27;20030;-75
2022/12/06 02:34:06;;;;;;;5.45;3.88;;;;;;;-2.98;100.00;93018.69;2138184;27;20026;-74
2022/12/06 02:35:18;;;;;;;4.47;3.75;;;;;;;-2.89;100.00;93015.94;2144451;27;20022;-76
2022/12/06 02:36:45;;;;;;;10.77;3.83;;;;;;;-2.91;100.00;93015.50;2133777;27;20041;-76
2022/12/06 02:37:59;;;;;;;18.90;3.75;;;;;;;-2.81;100.00;93015.78;2132493;27;20027;-74
2022/12/06 02:39:10;;;;;;;34.90;5.88;;;;;;;-2.76;100.00;93022.63;2137804;27;20109;-75
2022/12/06 02:40:18;;;;;;;4.38;3.70;;;;;;;-2.79;100.00;93015.44;2128888;27;20406;-75
2022/12/06 02:41:43;;;;;;;22.20;4.05;;;;;;;-2.82;100.00;93019.47;2129874;27;20015;-76
2022/12/06 02:42:57;;;;;;;50.92;4.30;;;;;;;-2.96;100.00;93013.13;2138315;27;20023;-74
2022/12/06 02:44:04;;;;;;;18.90;5.35;;;;;;;-2.87;100.00;93013.75;2137649;27;20487;-76
2022/12/06 02:45:12;;;;;;;9.93;4.13;;;;;;;-2.86;100.00;93013.41;2137862;27;20475;-74
2022/12/06 02:46:17;;;;;;;10.23;4.00;;;;;;;-2.81;100.00;93015.78;2137429;27;20030;-76
2022/12/06 02:47:23;;;;;;;15.90;4.50;;;;;;;-2.83;100.00;93014.59;2128717;27;20035;-76
2022/12/06 02:48:25;;;;;;;4.70;4.20;;;;;;;-2.79;100.00;93015.44;2138270;27;20033;-76
2022/12/06 02:49:32;;;;;;;4.20;3.78;;;;;;;-2.87;100.00;93011.88;2146440;27;20441;-76
2022/12/06 02:50:47;;;;;;;5.15;4.10;;;;;;;-2.87;100.00;93011.13;2147122;27;20026;-75
2022/12/06 02:51:51;;;;;;;4.78;4.00;;;;;;;-2.83;100.00;93017.22;2148051;27;20116;-76
2022/12/06 02:52:55;;;;;;;11.80;4.60;;;;;;;-2.82;100.00;93008.25;2149504;27;20017;-76
2022/12/06 02:53:59;;;;;;;4.35;3.95;;;;;;;-2.79;100.00;93007.59;2147890;27;20034;-75
2022/12/06 02:55:04;;;;;;;8.00;3.85;;;;;;;-2.80;100.00;93011.31;2146944;27;20014;-75
2022/12/06 02:56:06;;;;;;;20.35;4.30;;;;;;;-2.78;100.00;93006.50;2137419;27;20026;-76
2022/12/06 02:57:07;;;;;;;4.28;3.88;;;;;;;-2.74;100.00;93014.44;2137126;27;20023;-77
2022/12/06 02:58:09;;;;;;;5.13;4.38;;;;;;;-2.83;100.00;93006.75;2146602;27;20053;-76
2022/12/06 02:59:10;;;;;;;12.40;4.22;;;;;;;-3.00;100.00;93012.28;2146717;27;20056;-77
2022/12/06 03:00:49;;;;;;;11.57;3.85;;;;;;;-2.94;100.00;93011.72;2145912;27;20026;-74
2022/12/06 03:01:58;;;;;;;13.18;4.05;;;;;;;-2.93;100.00;93008.00;2085972;28;20028;-75
2022/12/06 03:03:38;;;;;;;22.48;4.38;;;;;;;-2.85;100.00;93001.88;2133571;27;20087;-75
2022/12/06 03:04:48;;;;;;;13.48;3.88;;;;;;;-2.82;100.00;93009.03;2146867;27;20018;-77
2022/12/06 03:06:01;;;;;;;16.48;3.95;;;;;;;-2.90;100.00;93001.31;2146762;27;20030;-75
2022/12/06 03:07:30;;;;;;;17.70;4.00;;;;;;;-2.99;100.00;92996.25;2145971;27;20085;-76
2022/12/06 03:08:55;;;;;;;15.27;4.10;;;;;;;-2.99;100.00;92998.84;2137717;27;20558;-78
2022/12/06 03:10:12;;;;;;;11.82;4.35;;;;;;;-2.99;100.00;92993.63;2138002;27;20374;-75
2022/12/06 03:11:13;;;;;;;6.35;3.95;;;;;;;-2.88;100.00;92999.16;2138022;27;20804;-75
2022/12/06 03:12:29;;;;;;;5.75;3.55;;;;;;;-2.84;100.00;92995.53;2137454;27;20125;-77
2022/12/06 03:13:56;;;;;;;4.68;4.22;;;;;;;-2.89;100.00;93003.63;2136341;27;20030;-77
2022/12/06 03:15:08;;;;;;;4.65;3.88;;;;;;;-2.84;100.00;92994.78;2121665;27;20468;-76
2022/12/06 03:16:31;;;;;;;3.78;3.40;;;;;;;-2.85;100.00;93003.72;2129903;27;20577;-74
2022/12/06 03:17:51;;;;;;;4.00;3.60;;;;;;;-2.90;100.00;93001.31;2137669;27;20543;-77
2022/12/06 03:19:03;;;;;;;4.90;4.10;;;;;;;-2.83;100.00;92993.69;2132055;27;20457;-74
2022/12/06 03:20:12;;;;;;;3.80;3.50;;;;;;;-2.80;100.00;92996.38;2128660;27;20027;-75
2022/12/06 03:21:33;;;;;;;4.93;3.90;;;;;;;-2.81;100.00;92994.09;2128415;27;20023;-74
2022/12/06 03:22:40;;;;;;;3.72;3.20;;;;;;;-2.75;100.00;92990.16;2129764;27;20983;-75
2022/12/06 03:23:45;;;;;;;4.22;3.83;;;;;;;-2.67;100.00;92994.47;2134240;27;20418;-74
2022/12/06 03:24:46;;;;;;;4.43;4.03;;;;;;;-2.60;100.00;92993.88;2141334;27;20526;-75
2022/12/06 03:25:49;;;;;;;4.10;3.65;;;;;;;-2.70;100.00;92989.16;2140841;27;20056;-77
2022/12/06 03:26:53;;;;;;;4.25;3.85;;;;;;;-2.58;100.00;92987.22;2141154;27;20033;-75
2022/12/06 03:27:57;;;;;;;3.83;3.53;;;;;;;-2.45;100.00;92990.53;2136957;27;20113;-76
2022/12/06 03:29:00;;;;;;;3.90;3.50;;;;;;;-2.43;100.00;92988.31;2131808;27;20027;-77
2022/12/06 03:30:07;;;;;;;4.95;3.40;;;;;;;-2.47;100.00;92986.72;2132668;27;20483;-75
2022/12/06 03:31:11;;;;;;;4.05;3.30;;;;;;;-2.45;100.00;92987.91;2132639;27;20449;-75
2022/12/06 03:32:15;;;;;;;3.67;3.38;;;;;;;-2.42;100.00;92981.22;2131550;27;20046;-77
2022/12/06 03:33:21;;;;;;;3.95;3.55;;;;;;;-2.45;100.00;92980.06;2132027;27;20050;-76
2022/12/06 03:34:46;;;;;;;3.47;3.10;;;;;;;-2.37;100.00;92976.53;2131353;27;20444;-76
2022/12/06 03:35:49;;;;;;;3.83;3.50;;;;;;;-2.39;100.00;92983.19;2122940;27;20030;-76
2022/12/06 03:36:52;;;;;;;3.50;3.20;;;;;;;-2.42;100.00;92983.84;2122639;27;20031;-75
2022/12/06 03:38:03;;;;;;;4.90;3.63;;;;;;;-2.48;100.00;92979.97;2123610;27;20195;-76
2022/12/06 03:39:06;;;;;;;3.75;3.45;;;;;;;-2.43;100.00;92977.09;2122679;27;20054;-77
2022/12/06 03:40:10;;;;;;;3.90;3.60;;;;;;;-2.46;100.00;92977.78;2123412;27;20088;-77
2022/12/06 03:41:15;;;;;;;3.90;3.50;;;;;;;-2.55;100.00;92975.31;2123590;27;20030;-76
2022/12/06 03:42:18;;;;;;;4.43;3.47;;;;;;;-2.44;100.00;92980.81;2122651;27;20050;-75
2022/12/06 03:43:19;;;;;;;3.42;3.13;;;;;;;-2.42;100.00;92978.63;2122786;27;20023;-77
2022/12/06 03:44:21;;;;;;;4.10;3.65;;;;;;;-2.33;100.00;92982.63;2123496;27;20035;-76
2022/12/06 03:45:28;;;;;;;3.80;3.40;;;;;;;-2.38;100.00;92982.09;2131481;27;20031;-76
2022/12/06 03:46:37;;;;;;;4.20;3.50;;;;;;;-2.42;100.00;92978.63;2131462;27;20025;-77
2022/12/06 03:47:50;;;;;;;3.92;3.60;;;;;;;-2.46;100.00;92983.00;2132036;27;20018;-75
2022/12/06 03:48:59;;;;;;;4.00;3.60;;;;;;;-2.39;100.00;92977.94;2131272;27;20514;-77
2022/12/06 03:50:06;;;;;;;4.15;3.75;;;;;;;-2.45;100.00;92974.84;2130709;27;20018;-75
2022/12/06 03:51:12;;;;;;;4.13;3.50;;;;;;;-2.32;100.00;92978.13;2131185;27;20079;-76
2022/12/06 03:52:13;;;;;;;3.72;3.38;;;;;;;-2.25;100.00;92982.75;2122532;27;20520;-75
2022/12/06 03:53:17;;;;;;;3.67;3.38;;;;;;;-2.18;100.00;92982.94;2128377;27;20119;-76
2022/12/06 03:54:18;;;;;;;3.70;3.40;;;;;;;-2.13;100.00;92980.06;2130171;27;20369;-77
2022/12/06 03:55:20;;;;;;;4.22;3.83;;;;;;;-2.14;100.00;92979.31;2128551;27;20027;-76
2022/12/06 03:56:22;;;;;;;4.25;3.47;;;;;;;-2.21;100.00;92983.59;2130492;27;20122;-76
2022/12/06 03:57:23;;;;;;;3.63;3.33;;;;;;;-2.16;100.00;92980.72;2128671;27;20349;-75
2022/12/06 03:58:24;;;;;;;3.92;3.53;;;;;;;-2.21;100.00;92978.38;2131928;27;20065;-77
2022/12/06 03:59:25;;;;;;;3.78;3.42;;;;;;;-2.28;100.00;92982.34;2130856;27;20019;-76
2022/12/06 04:00:26;;;;;;;4.45;3.80;;;;;;;-2.33;100.00;92972.13;2128984;27;20026;-76
2022/12/06 04:01:27;;;;;;;4.25;3.85;;;;;;;-2.39;100.00;92985.81;2131679;27;20494;-77
2022/12/06 04:02:28;;;;;;;4.82;4.20;;;;;;;-2.28;100.00;92976.38;2131457;27;20030;-76
2022/12/06 04:03:31;;;;;;;4.03;3.63;;;;;;;-2.24;100.00;92990.28;2131794;27;20026;-75
2022/12/06 04:04:32;;;;;;;5.00;4.03;;;;;;;-2.29;100.00;92986.03;2131589;27;20025;-76
2022/12/06 04:05:33;;;;;;;3.97;3.58;;;;;;;-2.23;100.00;92988.44;2126937;27;20545;-76
2022/12/06 04:06:34;;;;;;;4.68;3.95;;;;;;;-2.29;100.00;92993.16;2126897;27;20031;-76
2022/12/06 04:07:35;;;;;;;3.80;3.47;;;;;;;-2.25;100.00;92980.16;2131358;27;20085;-75
2022/12/06 04:08:36;;;;;;;4.47;4.07;;;;;;;-2.29;100.00;92988.66;2132446;27;20356;-75
2022/12/06 04:09:55;;;;;;;5.70;4.85;;;;;;;-2.30;100.00;92984.53;2131804;27;20047;-77
2022/12/06 04:10:56;;;;;;;4.35;3.97;;;;;;;-2.39;100.00;92988.41;2126379;27;20018;-77
2022/12/06 04:11:57;;;;;;;5.22;4.63;;;;;;;-2.29;100.00;92993.91;2124416;27;20023;-75
2022/12/06 04:13:01;;;;;;;4.20;3.78;;;;;;;-2.13;100.00;92993.16;2123609;27;20110;-76
2022/12/06 04:14:02;;;;;;;4.45;3.95;;;;;;;-2.17;100.00;92995.69;2123018;27;20128;-77
2022/12/06 04:15:07;;;;;;;3.85;3.55;;;;;;;-2.23;100.00;92991.06;2122465;27;20031;-77
2022/12/06 04:18:48;;;;;;;4.20;3.78;;;;;;;-2.23;100.00;92989.19;2122558;27;20046;-77
2022/12/06 04:19:48;;;;;;;3.97;3.58;;;;;;;-2.16;100.00;92991.19;2122732;27;20062;-76
2022/12/06 04:23:45;;;;;;;4.13;3.72;;;;;;;-2.32;100.00;92973.66;2123172;27;20528;-75
2022/12/06 04:24:45;;;;;;;5.13;4.20;;;;;;;-2.22;100.00;92966.38;2113940;28;20023;-74
2022/12/06 04:25:47;;;;;;;4.40;4.00;;;;;;;-2.22;100.00;92961.91;2114036;27;20024;-75
2022/12/06 04:26:48;;;;;;;4.63;4.22;;;;;;;-2.09;100.00;92967.81;2122513;27;20019;-78
2022/12/06 04:38:41;;;;;;;4.00;3.60;;;;;;;-2.15;100.00;92956.84;2130768;27;20101;-76
2022/12/06 04:39:42;;;;;;;4.32;3.92;;;;;;;-2.09;100.00;92955.47;2130778;27;20034;-76
2022/12/06 04:40:43;;;;;;;4.80;4.05;;;;;;;-2.15;100.00;92956.84;2121816;27;20059;-76
2022/12/06 04:44:23;;;;;;;4.85;3.80;;;;;;;-2.15;100.00;92954.22;2131212;27;20035;-76
2022/12/06 04:45:24;;;;;;;4.78;3.63;;;;;;;-2.15;100.00;92956.84;2131678;27;20428;-77
2022/12/06 04:46:26;;;;;;;4.72;4.22;;;;;;;-2.12;100.00;92952.78;2131489;27;20102;-74
2022/12/06 04:47:27;;;;;;;4.15;3.75;;;;;;;-2.14;100.00;92945.28;2132797;27;20060;-74
2022/12/06 04:48:28;;;;;;;4.47;4.07;;;;;;;-2.15;100.00;92948.22;2133978;27;20031;-75
2022/12/06 04:49:29;;;;;;;4.55;4.10;;;;;;;-2.20;100.00;92948.47;2134465;27;20038;-75
2022/12/06 04:50:30;;;;;;;6.68;4.60;;;;;;;-2.23;100.00;92947.31;2133520;27;20026;-76
2022/12/06 04:51:32;;;;;;;5.78;4.80;;;;;;;-2.12;100.00;92950.91;2133827;27;20033;-74
2022/12/06 04:52:33;;;;;;;4.05;3.72;;;;;;;-2.12;100.00;92944.91;2126500;27;20025;-75
2022/12/06 04:53:34;;;;;;;5.70;4.03;;;;;;;-2.04;100.00;92951.84;2114277;28;20023;-74
2022/12/06 04:54:36;;;;;;;4.95;3.95;;;;;;;-2.07;100.00;92940.19;2122626;27;20498;-76
2022/12/06 04:55:37;;;;;;;4.20;3.80;;;;;;;-2.01;100.00;92947.78;2122251;27;20023;-77
2022/12/06 04:56:38;;;;;;;3.90;3.60;;;;;;;-1.99;100.00;92956.06;2121851;27;20027;-74
2022/12/06 04:57:39;;;;;;;4.15;3.75;;;;;;;-2.01;100.00;92958.28;2123049;27;20019;-76
2022/12/06 04:58:40;;;;;;;4.15;3.75;;;;;;;-2.04;100.00;92959.69;2123251;27;20016;-77
2022/12/06 04:59:45;;;;;;;5.03;4.40;;;;;;;-2.05;100.00;92953.69;2122913;27;20023;-74
2022/12/06 05:00:45;;;;;;;4.38;3.97;;;;;;;-2.03;100.00;92955.97;2122752;27;20030;-75
2022/12/06 05:01:46;;;;;;;4.38;3.92;;;;;;;-2.05;100.00;92956.31;2121908;27;20015;-75
2022/12/06 05:02:47;;;;;;;4.22;3.83;;;;;;;-2.07;100.00;92958.50;2126518;27;20082;-77
2022/12/06 05:03:48;;;;;;;4.15;3.70;;;;;;;-2.08;100.00;92959.59;2130738;27;20142;-75
2022/12/06 05:04:49;;;;;;;6.53;3.92;;;;;;;-2.04;100.00;92944.00;2130598;27;20026;-75
2022/12/06 05:05:51;;;;;;;5.13;3.90;;;;;;;-1.99;100.00;92948.97;2131463;27;20453;-77
2022/12/06 05:06:52;;;;;;;4.40;4.00;;;;;;;-1.96;100.00;92947.53;2131152;27;20177;-75
2022/12/06 05:07:53;;;;;;;4.68;4.28;;;;;;;-1.95;100.00;92949.78;2126124;27;20420;-75
2022/12/06 05:08:54;;;;;;;9.82;8.65;;;;;;;-1.95;100.00;92949.03;2121629;27;20046;-75
2022/12/06 05:09:55;;;;;;;6.40;5.80;;;;;;;-1.92;100.00;92949.13;2113650;28;20066;-76
2022/12/06 05:10:56;;;;;;;7.75;7.00;;;;;;;-1.89;100.00;92945.84;2105168;28;20028;-75
2022/12/06 05:11:57;;;;;;;7.30;6.70;;;;;;;-1.89;100.00;92943.22;2121900;27;20364;-77
2022/12/06 05:12:58;;;;;;;16.73;15.05;;;;;;;-1.90;100.00;92946.16;2122671;27;20064;-78
2022/12/06 05:13:59;;;;;;;8.10;6.65;;;;;;;-1.91;100.00;92945.41;2122750;27;20042;-77
2022/12/06 05:15:00;;;;;;;6.72;6.00;;;;;;;-1.87;100.00;92943.63;2130128;27;20023;-79
2022/12/06 05:16:03;;;;;;;5.55;5.05;;;;;;;-1.84;100.00;92936.94;2131147;27;20014;-75
2022/12/06 05:17:04;;;;;;;5.97;5.38;;;;;;;-1.90;100.00;92930.44;2136696;27;20038;-76
2022/12/06 05:18:05;;;;;;;20.15;18.13;;;;;;;-1.85;100.00;92941.41;2125780;27;20365;-76
2022/12/06 05:19:06;;;;;;;17.90;14.95;;;;;;;-1.84;100.00;92939.56;2122045;27;20019;-74
2022/12/06 05:20:08;;;;;;;8.98;8.02;;;;;;;-1.90;100.00;92935.69;2131089;27;20022;-75
2022/12/06 05:21:18;;;;;;;5.72;5.22;;;;;;;-1.93;100.00;92939.75;2130692;27;20152;-77